createdAt,value
2018-09-28T00:00:16.996Z,65.00
2018-09-28T00:02:46.208Z,64.90
2018-09-28T00:05:15.603Z,65.40
2018-09-28T00:07:45.226Z,65.30
2018-09-28T00:10:13.801Z,65.20
2018-09-28T00:12:42.406Z,65.00
2018-09-28T00:15:14.230Z,65.00
2018-09-28T00:17:44.706Z,65.40
2018-09-28T00:20:16.312Z,65.50
2018-09-28T00:22:45.358Z,65.60
2018-09-28T00:25:13.830Z,65.40
2018-09-28T00:27:42.525Z,65.90
2018-09-28T00:30:11.839Z,65.60
2018-09-28T00:32:40.991Z,71.10
2018-09-28T00:35:10.386Z,72.60
2018-09-28T00:37:38.741Z,74.50
2018-09-28T00:40:07.735Z,72.80
2018-09-28T00:42:36.068Z,77.30
2018-09-28T00:45:04.388Z,76.60
2018-09-28T00:47:32.786Z,73.70
2018-09-28T00:50:01.084Z,72.70
2018-09-28T00:52:29.381Z,73.80
2018-09-28T00:54:58.466Z,77.60
2018-09-28T00:57:26.773Z,75.20
2018-09-28T00:59:55.126Z,74.00
2018-09-28T01:02:23.436Z,74.60
2018-09-28T01:04:51.837Z,74.60
2018-09-28T01:07:20.150Z,74.30
2018-09-28T01:09:48.441Z,74.40
2018-09-28T01:12:16.816Z,75.40
2018-09-28T01:14:45.157Z,73.80
2018-09-28T01:17:13.536Z,75.40
2018-09-28T01:19:41.888Z,74.40
2018-09-28T01:22:10.314Z,73.80
2018-09-28T01:24:38.618Z,73.80
2018-09-28T01:27:07.104Z,73.90
2018-09-28T01:29:35.481Z,74.10
2018-09-28T01:32:03.854Z,73.10
2018-09-28T01:34:32.228Z,75.90
2018-09-28T01:37:00.581Z,74.40
2018-09-28T01:39:28.867Z,74.30
2018-09-28T01:41:57.152Z,74.70
2018-09-28T01:44:25.490Z,74.40
2018-09-28T01:46:53.934Z,75.20
2018-09-28T01:49:22.213Z,74.80
2018-09-28T01:51:50.591Z,73.90
2018-09-28T01:54:18.902Z,73.40
2018-09-28T01:56:47.485Z,73.10
2018-09-28T01:59:15.789Z,72.40
2018-09-28T02:01:44.083Z,72.80
2018-09-28T02:04:12.406Z,72.30
2018-09-28T02:06:40.692Z,71.80
2018-09-28T02:09:09.440Z,71.70
2018-09-28T02:11:37.764Z,71.90
2018-09-28T02:14:06.139Z,71.90
2018-09-28T02:16:34.557Z,71.60
2018-09-28T02:19:02.892Z,71.60
2018-09-28T02:21:34.235Z,71.80
2018-09-28T02:24:02.591Z,71.40
2018-09-28T02:26:30.897Z,71.60
2018-09-28T02:28:59.216Z,71.80
2018-09-28T02:31:27.528Z,71.50
2018-09-28T02:33:55.846Z,71.50
2018-09-28T02:36:24.153Z,71.60
2018-09-28T02:38:52.543Z,71.20
2018-09-28T02:41:20.883Z,71.00
2018-09-28T02:43:49.172Z,71.70
2018-09-28T02:46:17.449Z,71.70
2018-09-28T02:48:45.915Z,71.70
2018-09-28T02:51:14.289Z,71.80
2018-09-28T02:53:42.653Z,71.80
2018-09-28T02:56:10.973Z,71.70
2018-09-28T02:58:39.381Z,72.10
2018-09-28T03:01:07.827Z,72.00
2018-09-28T03:03:36.752Z,71.80
2018-09-28T03:06:05.508Z,71.00
2018-09-28T03:08:33.759Z,71.10
2018-09-28T03:11:02.056Z,71.00
2018-09-28T03:13:30.433Z,71.70
2018-09-28T03:15:58.787Z,71.00
2018-09-28T03:18:27.656Z,71.50
2018-09-28T03:20:55.988Z,71.70
2018-09-28T03:23:24.292Z,72.00
2018-09-28T03:25:52.648Z,71.90
2018-09-28T03:28:20.961Z,71.70
2018-09-28T03:30:49.284Z,72.10
2018-09-28T03:33:17.579Z,72.20
2018-09-28T03:35:45.903Z,71.60
2018-09-28T03:38:14.280Z,71.60
2018-09-28T03:40:42.659Z,71.90
2018-09-28T03:43:10.933Z,72.50
2018-09-28T03:45:39.265Z,72.00
2018-09-28T03:48:07.611Z,71.80
2018-09-28T03:50:35.940Z,71.40
2018-09-28T03:53:04.645Z,71.20
2018-09-28T03:55:32.941Z,71.10
2018-09-28T03:58:01.284Z,71.00
2018-09-28T04:00:29.609Z,71.20
2018-09-28T04:02:57.973Z,70.80
2018-09-28T04:05:26.240Z,70.90
2018-09-28T04:07:54.550Z,70.90
2018-09-28T04:10:22.875Z,70.90
2018-09-28T04:12:51.142Z,70.60
2018-09-28T04:15:19.526Z,71.00
2018-09-28T04:17:47.869Z,70.90
2018-09-28T04:20:16.269Z,71.00
2018-09-28T04:22:45.554Z,70.30
2018-09-28T04:25:13.860Z,70.20
2018-09-28T04:27:42.182Z,70.50
2018-09-28T04:30:10.591Z,70.80
2018-09-28T04:32:39.010Z,70.70
2018-09-28T04:35:07.469Z,70.40
2018-09-28T04:37:35.830Z,70.70
2018-09-28T04:40:04.190Z,70.50
2018-09-28T04:42:32.572Z,70.60
2018-09-28T04:45:00.981Z,70.80
2018-09-28T04:47:29.308Z,70.70
2018-09-28T04:49:57.628Z,70.80
2018-09-28T04:52:26.468Z,71.20
2018-09-28T04:54:54.909Z,70.70
2018-09-28T04:57:23.229Z,70.30
2018-09-28T04:59:51.591Z,70.00
2018-09-28T05:02:19.928Z,69.80
2018-09-28T05:04:48.396Z,69.70
2018-09-28T05:07:16.766Z,69.70
2018-09-28T05:09:45.128Z,69.70
2018-09-28T05:12:13.479Z,69.40
2018-09-28T05:14:41.857Z,69.40
2018-09-28T05:17:10.201Z,69.30
2018-09-28T05:19:38.604Z,69.30
2018-09-28T05:22:07.255Z,69.10
2018-09-28T05:24:35.752Z,69.00
2018-09-28T05:27:04.065Z,68.70
2018-09-28T05:29:32.487Z,68.50
2018-09-28T05:32:23.262Z,68.40
2018-09-28T05:34:53.331Z,68.50
2018-09-28T05:37:21.677Z,68.30
2018-09-28T05:40:10.407Z,68.40
2018-09-28T05:42:39.895Z,68.40
2018-09-28T05:45:08.316Z,67.90
2018-09-28T05:47:37.167Z,67.90
2018-09-28T05:50:05.565Z,67.50
2018-09-28T05:52:33.911Z,67.80
2018-09-28T05:55:02.201Z,67.20
2018-09-28T05:57:30.538Z,67.30
2018-09-28T06:00:04.101Z,67.00
2018-09-28T06:02:38.066Z,66.80
2018-09-28T06:05:11.712Z,66.50
2018-09-28T06:07:40.186Z,65.40
2018-09-28T06:10:08.498Z,64.60
2018-09-28T06:12:36.870Z,65.70
2018-09-28T06:15:05.914Z,65.70
2018-09-28T06:17:34.325Z,65.40
2018-09-28T06:20:02.689Z,65.40
2018-09-28T06:22:30.986Z,65.00
2018-09-28T06:24:59.293Z,64.60
2018-09-28T06:27:27.652Z,63.30
2018-09-28T06:29:56.088Z,62.80
2018-09-28T06:32:24.510Z,62.90
2018-09-28T06:34:52.878Z,63.10
2018-09-28T06:37:21.225Z,61.80
2018-09-28T06:39:49.889Z,61.40
2018-09-28T06:42:19.037Z,61.20
2018-09-28T06:44:47.419Z,61.90
2018-09-28T06:47:15.657Z,61.70
2018-09-28T06:49:44.040Z,62.90
2018-09-28T06:52:12.334Z,60.80
2018-09-28T06:54:40.788Z,62.10
2018-09-28T06:57:09.241Z,60.80
2018-09-28T06:59:37.801Z,60.60
2018-09-28T07:02:06.147Z,61.40
2018-09-28T07:04:34.509Z,59.70
2018-09-28T07:07:02.957Z,60.80
2018-09-28T07:09:41.628Z,60.80
2018-09-28T07:12:10.072Z,60.70
2018-09-28T07:14:38.662Z,60.80
2018-09-28T07:17:06.997Z,61.50
2018-09-28T07:19:35.412Z,61.30
2018-09-28T07:22:03.773Z,61.40
2018-09-28T07:24:32.173Z,60.10
2018-09-28T07:27:00.465Z,60.90
2018-09-28T07:29:29.467Z,60.50
2018-09-28T07:31:57.975Z,59.80
2018-09-28T07:34:26.336Z,59.60
2018-09-28T07:36:55.206Z,59.40
2018-09-28T07:39:23.560Z,59.20
2018-09-28T07:41:51.971Z,59.80
2018-09-28T07:44:20.257Z,59.70
2018-09-28T07:46:57.749Z,60.50
2018-09-28T07:49:26.136Z,59.60
2018-09-28T07:51:54.468Z,58.70
2018-09-28T07:54:22.878Z,58.90
2018-09-28T07:56:51.223Z,58.70
2018-09-28T07:59:20.390Z,57.60
2018-09-28T08:01:49.207Z,58.40
2018-09-28T08:04:17.518Z,57.60
2018-09-28T08:06:45.881Z,58.30
2018-09-28T08:09:14.259Z,57.30
2018-09-28T08:11:47.416Z,57.30
2018-09-28T08:14:16.178Z,57.40
2018-09-28T08:16:44.900Z,57.60
2018-09-28T08:19:13.957Z,57.40
2018-09-28T08:21:43.361Z,58.40
2018-09-28T08:24:11.677Z,57.90
2018-09-28T08:26:40.293Z,56.90
2018-09-28T08:29:09.245Z,57.50
2018-09-28T08:31:37.602Z,56.70
2018-09-28T08:34:07.316Z,56.50
2018-09-28T08:36:36.787Z,57.30
2018-09-28T08:39:07.126Z,56.20
2018-09-28T08:41:35.570Z,55.90
2018-09-28T08:44:04.042Z,55.10
2018-09-28T08:46:32.609Z,55.10
2018-09-28T08:49:01.315Z,54.90
2018-09-28T08:51:29.634Z,56.40
2018-09-28T08:53:58.144Z,54.60
2018-09-28T08:56:26.685Z,55.00
2018-09-28T08:58:55.092Z,55.20
2018-09-28T09:01:23.390Z,53.80
2018-09-28T09:03:51.681Z,54.00
2018-09-28T09:06:20.979Z,54.10
2018-09-28T09:08:49.374Z,53.80
2018-09-28T09:11:17.932Z,52.70
2018-09-28T09:13:46.713Z,53.50
2018-09-28T09:16:15.033Z,53.40
2018-09-28T09:18:43.851Z,54.50
2018-09-28T09:21:12.234Z,53.20
2018-09-28T09:23:40.775Z,52.00
2018-09-28T09:26:09.126Z,51.70
2018-09-28T09:28:37.469Z,51.20
2018-09-28T09:31:06.469Z,52.90
2018-09-28T09:33:34.770Z,53.80
2018-09-28T09:36:03.073Z,53.20
2018-09-28T09:38:31.405Z,53.70
2018-09-28T09:40:59.694Z,52.40
2018-09-28T09:43:28.017Z,53.60
2018-09-28T09:45:56.357Z,50.60
2018-09-28T09:48:24.738Z,48.90
2018-09-28T09:50:53.075Z,50.20
2018-09-28T09:53:21.425Z,49.40
2018-09-28T09:55:49.845Z,48.70
2018-09-28T09:58:18.306Z,48.00
2018-09-28T10:00:58.952Z,50.00
2018-09-28T10:03:32.917Z,49.00
2018-09-28T10:06:01.519Z,49.60
2018-09-28T10:08:29.805Z,50.50
2018-09-28T10:10:58.140Z,50.70
2018-09-28T10:13:26.665Z,51.40
2018-09-28T10:15:54.972Z,50.60
2018-09-28T10:18:23.239Z,51.10
2018-09-28T10:20:51.601Z,50.00
2018-09-28T10:23:19.946Z,51.70
2018-09-28T10:25:48.927Z,48.50
2018-09-28T10:28:17.410Z,49.00
2018-09-28T10:30:45.655Z,50.20
2018-09-28T10:33:14.092Z,50.10
2018-09-28T10:35:42.583Z,48.00
2018-09-28T10:38:10.889Z,49.00
2018-09-28T10:40:39.387Z,48.00
2018-09-28T10:43:07.731Z,50.10
2018-09-28T10:45:36.247Z,49.10
2018-09-28T10:48:04.970Z,50.60
2018-09-28T10:50:33.269Z,47.70
2018-09-28T10:53:01.744Z,49.90
2018-09-28T10:55:29.968Z,50.60
2018-09-28T10:57:58.352Z,49.70
2018-09-28T11:00:26.859Z,48.30
2018-09-28T11:02:55.196Z,49.90
2018-09-28T11:05:23.890Z,49.60
2018-09-28T11:07:52.244Z,49.80
2018-09-28T11:10:20.769Z,49.20
2018-09-28T11:12:49.188Z,48.60
2018-09-28T11:15:17.567Z,49.00
2018-09-28T11:17:45.926Z,47.90
2018-09-28T11:20:14.352Z,50.30
2018-09-28T11:22:42.730Z,51.00
2018-09-28T11:25:11.040Z,49.40
2018-09-28T11:27:39.412Z,48.40
2018-09-28T11:30:07.701Z,49.80
2018-09-28T11:32:36.582Z,49.60
2018-09-28T11:35:07.639Z,50.40
2018-09-28T11:37:36.342Z,50.80
2018-09-28T11:40:04.629Z,49.20
2018-09-28T11:42:33.065Z,49.40
2018-09-28T11:45:01.550Z,49.30
2018-09-28T11:47:29.837Z,48.10
2018-09-28T11:49:58.310Z,46.30
2018-09-28T11:52:26.630Z,46.20
2018-09-28T11:54:54.928Z,48.20
2018-09-28T11:57:23.763Z,47.80
2018-09-28T11:59:52.073Z,48.30
2018-09-28T12:02:20.454Z,48.80
2018-09-28T12:04:48.765Z,48.80
2018-09-28T12:07:17.136Z,48.30
2018-09-28T12:09:45.596Z,49.20
2018-09-28T12:12:13.776Z,49.60
2018-09-28T12:14:42.136Z,48.80
2018-09-28T12:17:10.502Z,48.30
2018-09-28T12:19:38.993Z,48.20
2018-09-28T12:22:07.629Z,49.30
2018-09-28T12:24:36.103Z,49.30
2018-09-28T12:27:04.412Z,49.40
2018-09-28T12:29:32.768Z,50.30
2018-09-28T12:32:01.075Z,49.10
2018-09-28T12:34:29.406Z,48.30
2018-09-28T12:36:58.054Z,48.90
2018-09-28T12:39:26.537Z,48.20
2018-09-28T12:41:54.816Z,49.40
2018-09-28T12:44:23.230Z,49.20
2018-09-28T12:46:51.461Z,47.90
2018-09-28T12:49:19.784Z,49.40
2018-09-28T12:51:48.073Z,49.10
2018-09-28T12:54:16.388Z,48.70
2018-09-28T12:56:44.811Z,49.30
2018-09-28T12:59:13.165Z,48.70
2018-09-28T13:01:41.670Z,49.30
2018-09-28T13:04:15.530Z,50.30
2018-09-28T13:06:44.022Z,49.40
2018-09-28T13:09:12.435Z,49.40
2018-09-28T13:11:40.869Z,49.20
2018-09-28T13:14:09.861Z,49.60
2018-09-28T13:16:38.337Z,49.90
2018-09-28T13:19:07.838Z,50.40
2018-09-28T13:21:37.034Z,49.60
2018-09-28T13:24:05.436Z,48.90
2018-09-28T13:26:33.712Z,47.90
2018-09-28T13:29:02.082Z,48.10
2018-09-28T13:31:30.388Z,48.50
2018-09-28T13:33:58.704Z,48.60
2018-09-28T13:36:27.300Z,48.20
2018-09-28T13:38:55.621Z,48.70
2018-09-28T13:41:24.038Z,48.80
2018-09-28T13:43:52.372Z,49.50
2018-09-28T13:46:21.064Z,50.40
2018-09-28T13:48:49.443Z,48.50
2018-09-28T13:51:18.109Z,47.20
2018-09-28T14:03:02.566Z,47.10
2018-09-28T14:05:31.114Z,46.50
2018-09-28T14:07:59.832Z,47.80
2018-09-28T14:10:28.291Z,48.00
2018-09-28T14:12:56.533Z,48.10
2018-09-28T14:15:24.864Z,46.90
2018-09-28T14:17:53.193Z,45.90
2018-09-28T14:20:21.763Z,46.10
2018-09-28T14:22:50.101Z,46.10
2018-09-28T14:25:18.425Z,46.70
2018-09-28T14:27:46.822Z,46.90
2018-09-28T14:30:15.218Z,45.60
2018-09-28T14:32:43.646Z,45.20
2018-09-28T14:35:11.920Z,45.70
2018-09-28T14:37:40.245Z,45.10
2018-09-28T14:40:09.002Z,46.10
2018-09-28T14:42:37.542Z,47.60
2018-09-28T14:45:05.921Z,48.10
2018-09-28T14:47:34.304Z,48.60
2018-09-28T14:50:02.668Z,48.70
2018-09-28T14:52:31.677Z,48.50
2018-09-28T14:54:59.937Z,47.80
2018-09-28T14:57:28.267Z,47.90
2018-09-28T14:59:56.942Z,47.60
2018-09-28T15:02:25.304Z,47.60
2018-09-28T15:04:53.739Z,46.60
2018-09-28T15:07:22.090Z,46.80
2018-09-28T15:09:50.376Z,46.10
2018-09-28T15:12:19.773Z,47.00
2018-09-28T15:14:48.180Z,46.50
2018-09-28T15:17:16.483Z,45.70
2018-09-28T15:19:44.814Z,45.90
2018-09-28T15:22:13.426Z,46.70
2018-09-28T15:24:41.750Z,46.80
2018-09-28T15:27:10.153Z,47.50
2018-09-28T15:29:38.905Z,47.90
2018-09-28T15:32:07.444Z,48.20
2018-09-28T15:34:35.964Z,49.10
2018-09-28T15:37:04.352Z,49.30
2018-09-28T15:39:32.759Z,48.60
2018-09-28T15:42:01.319Z,48.90
2018-09-28T15:44:29.617Z,49.30
2018-09-28T15:46:59.694Z,49.30
2018-09-28T15:49:28.789Z,48.70
2018-09-28T15:51:58.955Z,49.40
2018-09-28T15:54:28.031Z,48.60
2018-09-28T15:56:57.074Z,48.80
2018-09-28T15:59:25.404Z,48.90
2018-09-28T16:01:53.996Z,49.60
2018-09-28T16:04:22.699Z,49.80
2018-09-28T16:06:53.637Z,49.10
2018-09-28T16:09:22.240Z,48.20
2018-09-28T16:11:50.556Z,48.20
2018-09-28T16:14:18.919Z,48.60
2018-09-28T16:16:47.285Z,48.20
2018-09-28T16:19:15.633Z,48.30
2018-09-28T16:21:44.362Z,48.80
2018-09-28T16:24:12.823Z,49.00
2018-09-28T16:26:41.100Z,49.00
2018-09-28T16:29:09.540Z,49.50
2018-09-28T16:31:37.905Z,49.50
2018-09-28T16:34:06.345Z,49.50
2018-09-28T16:36:34.687Z,49.50
2018-09-28T16:39:02.993Z,49.70
2018-09-28T16:41:31.375Z,49.80
2018-09-28T16:43:59.744Z,49.20
2018-09-28T16:46:28.089Z,48.60
2018-09-28T16:48:56.478Z,48.90
2018-09-28T16:51:24.905Z,49.00
2018-09-28T16:53:53.290Z,48.90
2018-09-28T16:56:21.711Z,49.10
2018-09-28T16:58:50.225Z,49.50
2018-09-28T17:01:18.601Z,49.60
2018-09-28T17:03:46.906Z,49.40
2018-09-28T17:06:15.197Z,49.90
2018-09-28T17:08:44.334Z,49.90
2018-09-28T17:11:12.741Z,49.80
2018-09-28T17:13:41.169Z,49.50
2018-09-28T17:16:09.583Z,49.70
2018-09-28T17:18:38.113Z,49.20
2018-09-28T17:21:07.620Z,49.40
2018-09-28T17:23:37.528Z,49.50
2018-09-28T17:26:06.294Z,49.50
2018-09-28T17:28:36.320Z,49.60
2018-09-28T17:31:06.774Z,49.80
2018-09-28T17:33:35.578Z,50.20
2018-09-28T17:36:03.889Z,50.20
2018-09-28T17:38:32.266Z,50.30
2018-09-28T17:41:00.656Z,50.40
2018-09-28T17:43:29.541Z,50.60
2018-09-28T17:45:58.052Z,50.70
2018-09-28T17:48:26.344Z,51.00
2018-09-28T17:50:56.165Z,51.40
2018-09-28T17:53:24.537Z,51.10
2018-09-28T17:55:53.002Z,51.50
2018-09-28T17:58:21.342Z,51.40
2018-09-28T18:00:50.129Z,51.70
2018-09-28T18:03:18.618Z,52.00
2018-09-28T18:05:46.991Z,52.40
2018-09-28T18:08:15.359Z,52.20
2018-09-28T18:10:43.725Z,52.70
2018-09-28T18:13:12.158Z,52.50
2018-09-28T18:15:40.643Z,52.70
2018-09-28T18:18:09.065Z,52.90
2018-09-28T18:20:38.773Z,52.60
2018-09-28T18:23:07.222Z,52.90
2018-09-28T18:25:35.547Z,52.90
2018-09-28T18:28:03.857Z,53.00
2018-09-28T18:30:32.164Z,53.20
2018-09-28T18:33:00.858Z,52.90
2018-09-28T18:35:29.654Z,53.10
2018-09-28T18:37:58.170Z,53.10
2018-09-28T18:40:29.822Z,53.30
2018-09-28T18:42:58.182Z,53.20
2018-09-28T18:45:26.729Z,53.40
2018-09-28T18:47:55.119Z,53.50
2018-09-28T18:50:24.528Z,53.60
2018-09-28T18:52:52.996Z,53.30
2018-09-28T18:55:21.469Z,53.20
2018-09-28T18:57:49.915Z,53.50
2018-09-28T19:00:18.300Z,53.40
2018-09-28T19:02:47.688Z,53.50
2018-09-28T19:05:16.128Z,53.60
2018-09-28T19:07:44.672Z,53.70
2018-09-28T19:10:13.085Z,53.80
2018-09-28T19:12:41.632Z,53.60
2018-09-28T19:15:11.338Z,53.60
2018-09-28T19:17:39.998Z,53.70
2018-09-28T19:20:08.350Z,53.50
2018-09-28T19:22:36.749Z,54.70
2018-09-28T19:25:05.532Z,53.70
2018-09-28T19:27:34.030Z,54.30
2018-09-28T19:30:02.320Z,54.20
2018-09-28T19:32:30.709Z,54.00
2018-09-28T19:34:59.120Z,53.60
2018-09-28T19:37:27.529Z,54.00
2018-09-28T19:39:56.010Z,54.00
2018-09-28T19:42:24.606Z,53.90
2018-09-28T19:44:52.974Z,53.50
2018-09-28T19:47:21.479Z,54.30
2018-09-28T19:49:49.905Z,53.60
2018-09-28T19:52:18.768Z,53.70
2018-09-28T19:54:47.174Z,53.90
2018-09-28T19:57:16.570Z,53.80
2018-09-28T19:59:45.222Z,53.60
2018-09-28T20:02:13.653Z,53.60
2018-09-28T20:04:42.156Z,53.60
2018-09-28T20:07:10.618Z,53.60
2018-09-28T20:09:40.717Z,53.60
2018-09-28T20:12:09.154Z,54.00
2018-09-28T20:14:37.685Z,53.90
2018-09-28T20:17:06.102Z,53.50
2018-09-28T20:19:34.637Z,53.30
2018-09-28T20:22:03.023Z,53.50
2018-09-28T20:24:31.357Z,53.50
2018-09-28T20:26:59.858Z,53.60
2018-09-28T20:29:28.317Z,53.40
2018-09-28T20:31:56.796Z,53.70
2018-09-28T20:34:25.518Z,53.40
2018-09-28T20:36:54.123Z,53.50
2018-09-28T20:39:22.563Z,53.60
2018-09-28T20:41:51.004Z,53.70
2018-09-28T20:44:19.460Z,53.80
2018-09-28T20:46:47.903Z,53.40
2018-09-28T20:49:16.336Z,53.60
2018-09-28T20:51:44.725Z,53.70
2018-09-28T20:54:13.414Z,54.20
2018-09-28T20:56:41.833Z,53.90
2018-09-28T20:59:10.112Z,53.60
2018-09-28T21:01:45.395Z,53.60
2018-09-28T21:04:13.824Z,53.60
2018-09-28T21:06:43.858Z,53.70
2018-09-28T21:09:16.771Z,53.90
2018-09-28T21:11:46.094Z,54.30
2018-09-28T21:14:14.430Z,53.80
2018-09-28T21:16:42.878Z,53.80
2018-09-28T21:19:11.793Z,54.00
2018-09-28T21:21:40.250Z,54.30
2018-09-28T21:24:09.344Z,54.10
2018-09-28T21:26:39.913Z,54.10
2018-09-28T21:29:08.647Z,54.20
2018-09-28T21:31:37.290Z,54.00
2018-09-28T21:34:05.712Z,54.40
2018-09-28T21:36:34.063Z,54.50
2018-09-28T21:39:02.646Z,54.40
2018-09-28T21:41:31.480Z,54.40
2018-09-28T21:43:59.874Z,54.00
2018-09-28T21:46:28.470Z,54.30
2018-09-28T21:48:56.818Z,54.40
2018-09-28T21:51:25.265Z,54.70
2018-09-28T21:53:53.651Z,54.30
2018-09-28T21:56:22.050Z,54.20
2018-09-28T21:58:50.581Z,54.40
2018-09-28T22:01:21.740Z,54.40
2018-09-28T22:03:52.222Z,54.50
2018-09-28T22:06:20.882Z,54.50
2018-09-28T22:08:49.284Z,54.40
2018-09-28T22:11:17.877Z,54.70
2018-09-28T22:13:46.599Z,54.50
2018-09-28T22:16:15.801Z,54.60
2018-09-28T22:18:44.503Z,54.70
2018-09-28T22:21:13.727Z,54.50
2018-09-28T22:23:43.540Z,54.40
2018-09-28T22:26:12.165Z,54.80
2018-09-28T22:28:41.228Z,54.70
2018-09-28T22:31:09.617Z,54.50
2018-09-28T22:33:38.167Z,54.50
2018-09-28T22:36:07.756Z,54.40
2018-09-28T22:38:36.260Z,54.50
2018-09-28T22:41:04.656Z,55.00
2018-09-28T22:43:33.281Z,55.00
2018-09-28T22:46:01.751Z,54.70
2018-09-28T22:48:30.538Z,54.70
2018-09-28T22:50:59.068Z,54.90
2018-09-28T22:53:27.724Z,55.50
2018-09-28T22:55:56.076Z,55.40
2018-09-28T22:58:25.013Z,55.20
2018-09-28T23:00:53.422Z,55.00
2018-09-28T23:03:21.829Z,55.00
2018-09-28T23:05:50.265Z,54.90
2018-09-28T23:08:18.842Z,55.10
2018-09-28T23:10:47.445Z,55.10
2018-09-28T23:13:16.108Z,55.00
2018-09-28T23:15:45.134Z,55.20
2018-09-28T23:18:13.703Z,55.20
2018-09-28T23:20:42.181Z,55.30
2018-09-28T23:23:10.723Z,55.20
2018-09-28T23:25:39.254Z,55.40
2018-09-28T23:28:07.657Z,55.30
2018-09-28T23:30:36.136Z,56.10
2018-09-28T23:33:04.624Z,55.30
2018-09-28T23:35:33.375Z,55.40
2018-09-28T23:38:01.738Z,55.30
2018-09-28T23:40:30.093Z,55.30
2018-09-28T23:42:58.667Z,55.40
2018-09-28T23:45:27.074Z,55.40
2018-09-28T23:47:55.877Z,55.50
2018-09-28T23:50:24.318Z,55.50
2018-09-28T23:52:52.726Z,56.40
2018-09-28T23:55:21.156Z,55.80
2018-09-28T23:57:49.600Z,55.80
